Station Historical Data
Daily Summary for May 17, 2012 Units:  Metric    English   Both
« Previous Day
Next Day »
Daily Weekly Monthly Yearly Custom
  High: Low: Average:
Temperature: 28.9 °C 14.1 °C 21.2 °C
Dew Point: 19.4 °C 11.8 °C 14.8 °C
Humidity: 90% 41% 70%
Wind Speed: 20.9km/h 0km/h 2.3km/h
Wind Gust: 24.1km/h - -
Wind- - SSE
Pressure: 1014.4 hPa 1012.1 hPa -
Precipitation: 12.19 mm    
Historical Graphs
 
 
Tabular Data for May 17, 2012
Time Temperature Dew Point Pressure Wind Wind Speed Wind Gust Humidity Rainfall Rate (Hourly) Conditions
00:00 16.9 °C 13.7 °C 1013.4 hPa Calm     81% 0 mm
00:01 16.9 °C 13.7 °C 1013.4 hPa Calm     81% 0 mm
00:06 16.9 °C 13.8 °C 1013.4 hPa Calm     82% 0 mm
00:11 17 °C 13.7 °C 1013.4 hPa Calm     81% 0 mm
00:16 17.1 °C 13.8 °C 1013.4 hPa Calm     81% 0 mm
00:21 17.1 °C 13.6 °C 1013.4 hPa Calm     80% 0 mm
00:26 17.2 °C 13.3 °C 1013.4 hPa Calm     78% 0 mm
00:31 17.2 °C 13.1 °C 1013.4 hPa Calm     77% 0 mm
00:36 16.9 °C 13.1 °C 1013.4 hPa Calm     78% 0 mm
00:41 16.9 °C 13.8 °C 1013.4 hPa Calm     82% 0 mm
00:46 16.8 °C 14.1 °C 1013.4 hPa Calm     84% 0 mm
00:51 16.7 °C 13.9 °C 1013.4 hPa WNW 1.6 km/h 1.6 km/h 84% 0 mm
00:56 16.6 °C 14 °C 1013.4 hPa Calm     85% 0 mm
01:01 16.2 °C 14.1 °C 1013.4 hPa Calm     87% 0 mm
01:06 15.9 °C 13.9 °C 1013.4 hPa Calm     88% 0 mm
01:11 15.7 °C 13.7 °C 1013.4 hPa Calm     88% 0 mm
01:16 15.6 °C 13.6 °C 1013.4 hPa Calm     88% 0 mm
01:21 15.4 °C 13.7 °C 1013.4 hPa Calm     89% 0 mm
01:26 15.3 °C 13.7 °C 1013.4 hPa Calm     90% 0 mm
01:31 15.3 °C 13.6 °C 1013.4 hPa Calm     89% 0 mm
01:36 15.4 °C 13.6 °C 1013.4 hPa Calm     89% 0 mm
01:41 15.3 °C 13.3 °C 1013.1 hPa Calm     88% 0 mm
01:46 15.4 °C 13.4 °C 1013.4 hPa Calm     88% 0 mm
01:51 15.5 °C 13.3 °C 1013.1 hPa Calm     87% 0 mm
01:56 15.4 °C 13.2 °C 1013.1 hPa Calm     87% 0 mm
02:01 15.3 °C 13.1 °C 1013.1 hPa Calm     87% 0 mm
02:06 15.3 °C 13.2 °C 1013.1 hPa Calm     87% 0 mm
02:11 15.6 °C 13.6 °C 1013.1 hPa Calm     88% 0 mm
02:16 15.7 °C 13.7 °C 1013.1 hPa Calm     88% 0 mm
02:22 15.6 °C 13.6 °C 1013.1 hPa Calm   1.6 km/h 88% 0 mm
02:27 15.5 °C 13.3 °C 1013.1 hPa Calm     87% 0 mm
02:32 15.4 °C 13.1 °C 1013.1 hPa Calm     86% 0 mm
02:37 15.6 °C 13.3 °C 1013.1 hPa Calm     86% 0 mm
02:42 15.6 °C 12.9 °C 1013.1 hPa Calm     84% 0 mm
02:47 15.7 °C 12.9 °C 1013.1 hPa Calm     84% 0 mm
02:52 15.7 °C 13.1 °C 1012.8 hPa Calm     84% 0 mm
02:57 15.7 °C 13.1 °C 1013.1 hPa Calm     84% 0 mm
03:02 15.7 °C 12.7 °C 1013.1 hPa Calm     82% 0 mm
03:07 15.7 °C 12.8 °C 1013.1 hPa Calm     83% 0 mm
03:12 15.8 °C 12.9 °C 1013.1 hPa Calm     83% 0 mm
03:17 15.7 °C 12.7 °C 1013.1 hPa Calm     82% 0 mm
03:22 15.6 °C 12.5 °C 1013.1 hPa Calm     82% 0 mm
03:27 15.6 °C 12.9 °C 1013.1 hPa Calm     84% 0 mm
03:32 15.5 °C 12.6 °C 1013.1 hPa Calm     83% 0 mm
03:37 15.5 °C 13.2 °C 1013.1 hPa Calm   1.6 km/h 86% 0 mm
03:42 15.4 °C 12.9 °C 1013.1 hPa Calm     85% 0 mm
03:47 15.3 °C 12.6 °C 1013.1 hPa Calm     84% 0 mm
03:52 15.2 °C 12.5 °C 1013.1 hPa Calm     84% 0 mm
03:57 15.1 °C 12.2 °C 1013.1 hPa Calm     83% 0 mm
04:02 15.2 °C 12.2 °C 1013.1 hPa Calm     82% 0 mm
04:07 15.9 °C 12.5 °C 1013.1 hPa WNW 1.6 km/h 1.6 km/h 80% 0 mm
04:12 16.8 °C 12.6 °C 1013.1 hPa WNW 1.6 km/h 1.6 km/h 76% 0 mm
04:17 17.1 °C 12.4 °C 1013.1 hPa Calm     74% 0 mm
04:22 16.9 °C 12.5 °C 1013.1 hPa Calm     75% 0 mm
04:27 16.6 °C 12.5 °C 1013.1 hPa WNW 1.6 km/h 1.6 km/h 77% 0 mm
04:32 16.2 °C 13.1 °C 1013.1 hPa Calm   1.6 km/h 82% 0 mm
04:37 15.7 °C 13.1 °C 1013.1 hPa NNW 1.6 km/h 1.6 km/h 84% 0 mm
04:42 15.3 °C 12.8 °C 1013.1 hPa Calm     85% 0 mm
04:47 15.1 °C 12.7 °C 1013.4 hPa Calm     86% 0 mm
04:53 15 °C 12.7 °C 1013.4 hPa Calm     86% 0 mm
04:58 14.8 °C 12.5 °C 1013.4 hPa Calm     86% 0 mm
05:03 14.7 °C 12.3 °C 1013.4 hPa Calm     86% 0 mm
05:08 14.4 °C 12.1 °C 1013.4 hPa Calm     86% 0 mm
05:13 14.3 °C 12.1 °C 1013.4 hPa Calm     86% 0 mm
05:18 14.3 °C 12.2 °C 1013.4 hPa Calm   1.6 km/h 87% 0 mm
05:23 14.6 °C 12.4 °C 1013.4 hPa Calm   1.6 km/h 87% 0 mm
05:28 14.6 °C 12.3 °C 1013.4 hPa Calm   1.6 km/h 86% 0 mm
05:33 14.6 °C 12.5 °C 1013.4 hPa Calm     87% 0 mm
05:38 14.7 °C 12.3 °C 1013.4 hPa Calm     86% 0 mm
05:43 14.5 °C 12.2 °C 1013.4 hPa Calm     86% 0 mm
05:48 14.4 °C 12.1 °C 1013.4 hPa Calm     86% 0 mm
05:53 14.3 °C 12.1 °C 1013.4 hPa Calm     86% 0 mm
05:58 14.2 °C 11.9 °C 1013.4 hPa Calm     86% 0 mm
06:03 14.3 °C 11.8 °C 1013.4 hPa Calm     85% 0 mm
06:08 14.6 °C 12.1 °C 1013.4 hPa Calm     85% 0 mm
06:13 14.7 °C 12.2 °C 1013.4 hPa Calm     85% 0 mm
06:18 14.8 °C 12.3 °C 1013.4 hPa Calm     85% 0 mm
06:23 14.7 °C 12.5 °C 1013.4 hPa NNW 1.6 km/h 3.2 km/h 87% 0 mm
06:29 14.3 °C 12.3 °C 1013.4 hPa NNW 1.6 km/h 3.2 km/h 88% 0 mm
06:34 14.1 °C 12.3 °C 1013.4 hPa Calm   1.6 km/h 89% 0 mm
06:39 14.1 °C 12.3 °C 1013.4 hPa Calm     89% 0 mm
06:44 14.2 °C 12.2 °C 1013.4 hPa Calm     88% 0 mm
06:49 14.3 °C 12.3 °C 1013.4 hPa Calm     88% 0 mm
06:54 14.5 °C 12.2 °C 1013.8 hPa Calm     86% 0 mm
06:55 14.5 °C 12.2 °C 1013.8 hPa Calm     86% 0 mm
07:00 14.6 °C 12.1 °C 1013.8 hPa Calm     85% 0 mm
07:05 14.8 °C 12.3 °C 1013.8 hPa Calm     85% 0 mm
07:10 15.1 °C 12.4 °C 1013.8 hPa Calm     84% 0 mm
07:15 15.2 °C 12.5 °C 1013.8 hPa Calm     84% 0 mm
07:20 15.2 °C 12.6 °C 1013.8 hPa Calm     84% 0 mm
07:25 15.4 °C 12.5 °C 1013.8 hPa Calm     83% 0 mm
07:30 15.9 °C 13.1 °C 1013.8 hPa Calm     83% 0 mm
07:35 16.6 °C 13.3 °C 1013.8 hPa Calm     81% 0 mm
07:40 17.3 °C 13.6 °C 1014.1 hPa Calm     79% 0 mm
07:45 17.7 °C 14.1 °C 1014.1 hPa Calm     79% 0 mm
07:50 18.1 °C 14.2 °C 1014.1 hPa Calm     78% 0 mm
07:55 18.3 °C 14.4 °C 1014.1 hPa Calm     78% 0 mm
08:00 18.6 °C 14.7 °C 1014.1 hPa Calm     78% 0 mm
08:05 18.8 °C 14.4 °C 1014.1 hPa Calm   1.6 km/h 76% 0 mm
08:10 19.1 °C 15 °C 1014.1 hPa Calm   1.6 km/h 77% 0 mm
08:15 19.4 °C 15.1 °C 1014.1 hPa Calm   1.6 km/h 76% 0 mm
08:20 19.8 °C 15.1 °C 1014.1 hPa Calm   1.6 km/h 74% 0 mm
08:25 20.2 °C 15.4 °C 1014.4 hPa NNW 1.6 km/h 1.6 km/h 74% 0 mm
08:30 20.1 °C 15.7 °C 1014.4 hPa NNW 1.6 km/h 1.6 km/h 76% 0 mm
08:35 20.1 °C 15.6 °C 1014.4 hPa Calm   1.6 km/h 75% 0 mm
08:40 20.4 °C 16.2 °C 1014.4 hPa Calm   1.6 km/h 77% 0 mm
08:45 20.6 °C 15.8 °C 1014.4 hPa NW 3.2 km/h 3.2 km/h 74% 0 mm
08:50 20.6 °C 15.6 °C 1014.4 hPa WNW 3.2 km/h 3.2 km/h 73% 0 mm
08:55 20.8 °C 16 °C 1014.1 hPa WNW 1.6 km/h 4.8 km/h 74% 0 mm
09:00 21.1 °C 16.1 °C 1014.4 hPa NW 3.2 km/h 3.2 km/h 73% 0 mm
09:05 21.4 °C 16.1 °C 1014.4 hPa WNW 1.6 km/h 3.2 km/h 72% 0 mm
09:10 21.6 °C 15.7 °C 1014.4 hPa West 3.2 km/h 6.4 km/h 69% 0 mm
09:15 21.9 °C 16.2 °C 1014.4 hPa WNW 1.6 km/h 3.2 km/h 70% 0 mm
09:20 22.2 °C 16.2 °C 1014.4 hPa WNW 4.8 km/h 4.8 km/h 69% 0 mm
09:26 22.4 °C 15.9 °C 1014.4 hPa WNW 3.2 km/h 6.4 km/h 67% 0 mm
09:31 22.8 °C 16.3 °C 1014.4 hPa Calm   1.6 km/h 67% 0 mm
09:36 23.1 °C 16.2 °C 1014.4 hPa NW 3.2 km/h 4.8 km/h 65% 0 mm
09:41 23.3 °C 15.4 °C 1014.4 hPa NNW 4.8 km/h 4.8 km/h 61% 0 mm
09:46 23.6 °C 15.1 °C 1014.4 hPa NW 3.2 km/h 4.8 km/h 59% 0 mm
09:51 23.8 °C 15.3 °C 1014.4 hPa WNW 1.6 km/h 4.8 km/h 59% 0 mm
09:56 24.1 °C 16.6 °C 1014.1 hPa West 3.2 km/h 4.8 km/h 63% 0 mm
10:01 24.3 °C 16 °C 1014.4 hPa WNW 4.8 km/h 4.8 km/h 60% 0 mm
10:06 24.3 °C 15.3 °C 1014.4 hPa WNW 1.6 km/h 6.4 km/h 57% 0 mm
10:11 24.4 °C 14.8 °C 1014.4 hPa NW 4.8 km/h 4.8 km/h 55% 0 mm
10:16 24.6 °C 15 °C 1014.4 hPa Calm   4.8 km/h 55% 0 mm
10:21 25 °C 14.4 °C 1014.4 hPa Calm   3.2 km/h 52% 0 mm
10:26 25.3 °C 14.5 °C 1014.4 hPa NW 1.6 km/h 3.2 km/h 51% 0 mm
10:31 25.7 °C 14.5 °C 1014.4 hPa NNW 1.6 km/h 6.4 km/h 50% 0 mm
10:36 25.8 °C 15.5 °C 1014.4 hPa WNW 3.2 km/h 8 km/h 53% 0 mm
10:41 25.8 °C 15.5 °C 1014.4 hPa NW 3.2 km/h 6.4 km/h 53% 0 mm
10:46 25.8 °C 14.6 °C 1014.4 hPa WNW 3.2 km/h 4.8 km/h 50% 0 mm
10:51 26 °C 14.8 °C 1014.1 hPa Calm   3.2 km/h 50% 0 mm
10:56 26.3 °C 13.4 °C 1014.1 hPa NE 3.2 km/h 4.8 km/h 45% 0 mm
11:01 26.2 °C 14 °C 1014.1 hPa NE 3.2 km/h 6.4 km/h 47% 0 mm
11:06 26.3 °C 14.1 °C 1014.1 hPa NW 1.6 km/h 4.8 km/h 47% 0 mm
11:11 26.3 °C 13.8 °C 1014.1 hPa NNE 3.2 km/h 3.2 km/h 46% 0 mm
11:16 26.6 °C 15 °C 1014.1 hPa NE 1.6 km/h 3.2 km/h 49% 0 mm
11:22 26.5 °C 13.3 °C 1014.1 hPa NNE 3.2 km/h 6.4 km/h 44% 0 mm
11:27 26.7 °C 14.1 °C 1014.1 hPa NNW 1.6 km/h 6.4 km/h 46% 0 mm
11:32 26.7 °C 14.2 °C 1014.1 hPa West 3.2 km/h 6.4 km/h 46% 0 mm
11:37 26.8 °C 13.9 °C 1014.1 hPa NNW 3.2 km/h 4.8 km/h 45% 0 mm
11:42 26.9 °C 14.7 °C 1014.1 hPa WNW 3.2 km/h 4.8 km/h 47% 0 mm
11:47 26.9 °C 14.3 °C 1014.1 hPa NW 3.2 km/h 6.4 km/h 46% 0 mm
11:52 27.1 °C 14.5 °C 1014.1 hPa NNE 4.8 km/h 6.4 km/h 46% 0 mm
11:57 27.1 °C 14.8 °C 1014.1 hPa NE 6.4 km/h 11.3 km/h 47% 0 mm
12:02 26.8 °C 14.6 °C 1014.1 hPa NE 8 km/h 8 km/h 47% 0 mm
12:07 26.9 °C 15 °C 1014.1 hPa ESE 3.2 km/h 8 km/h 48% 0 mm
12:12 27.3 °C 15 °C 1014.1 hPa ESE 1.6 km/h 4.8 km/h 47% 0 mm
12:17 27.3 °C 14.7 °C 1014.1 hPa NE 4.8 km/h 8 km/h 46% 0 mm
12:22 27.3 °C 14.3 °C 1014.1 hPa NW 6.4 km/h 8 km/h 45% 0 mm
12:27 27.5 °C 15.5 °C 1014.1 hPa East 1.6 km/h 3.2 km/h 48% 0 mm
12:32 27.5 °C 14.9 °C 1014.1 hPa NNE 6.4 km/h 11.3 km/h 46% 0 mm
12:37 27.4 °C 14.8 °C 1014.1 hPa East 11.3 km/h 11.3 km/h 46% 0 mm
12:42 27.3 °C 14.4 °C 1014.1 hPa NE 9.7 km/h 9.7 km/h 45% 0 mm
12:44 27.3 °C 13.7 °C 1014.1 hPa NE 6.4 km/h 9.7 km/h 43% 0 mm
12:49 27.3 °C 15.3 °C 1014.1 hPa ESE 8 km/h 9.7 km/h 48% 0 mm
12:50 27.3 °C 14 °C 1014.1 hPa East 4.8 km/h 9.7 km/h 44% 0 mm
12:51 27.3 °C 14.4 °C 1013.8 hPa SE 1.6 km/h 9.7 km/h 45% 0 mm
12:56 27.6 °C 14.6 °C 1013.8 hPa East 8 km/h 16.1 km/h 45% 0 mm
12:59 27.7 °C 14.3 °C 1013.8 hPa ESE 12.9 km/h 12.9 km/h 44% 0 mm
13:00 27.6 °C 13.9 °C 1013.8 hPa SE 6.4 km/h 14.5 km/h 43% 0 mm
13:05 27.7 °C 15.1 °C 1013.8 hPa SSE 9.7 km/h 12.9 km/h 46% 0 mm
13:10 27.6 °C 13.9 °C 1013.8 hPa South 3.2 km/h 12.9 km/h 43% 0 mm
13:15 27.8 °C 13.7 °C 1013.8 hPa Calm   3.2 km/h 42% 0 mm
13:20 28.2 °C 15.4 °C 1013.8 hPa SW 3.2 km/h 9.7 km/h 46% 0 mm
13:25 28.5 °C 15.1 °C 1013.8 hPa ESE 4.8 km/h 6.4 km/h 44% 0 mm
13:30 28.4 °C 14.3 °C 1013.8 hPa ESE 4.8 km/h 9.7 km/h 42% 0 mm
13:36 28.2 °C 14.4 °C 1013.8 hPa East 4.8 km/h 8 km/h 43% 0 mm
13:41 28.3 °C 13.8 °C 1013.4 hPa ENE 4.8 km/h 8 km/h 41% 0 mm
13:46 28.2 °C 15.2 °C 1013.4 hPa SE 4.8 km/h 14.5 km/h 45% 0 mm
13:51 28.2 °C 13.7 °C 1013.4 hPa East 6.4 km/h 11.3 km/h 41% 0 mm
13:56 28.1 °C 13.9 °C 1013.4 hPa North 4.8 km/h 12.9 km/h 42% 0 mm
14:01 28.2 °C 14.8 °C 1013.4 hPa SSE 6.4 km/h 11.3 km/h 44% 0 mm
14:06 28.4 °C 14.7 °C 1013.4 hPa SSE 6.4 km/h 12.9 km/h 43% 0 mm
14:11 28.5 °C 14.7 °C 1013.1 hPa SSE 3.2 km/h 12.9 km/h 43% 0 mm
14:16 28.7 °C 14.5 °C 1013.1 hPa ESE 3.2 km/h 17.7 km/h 42% 0 mm
14:21 28.3 °C 14.2 °C 1013.1 hPa SE 4.8 km/h 11.3 km/h 42% 0 mm
14:26 28.2 °C 14.1 °C 1013.1 hPa ENE 6.4 km/h 8 km/h 42% 0 mm
14:31 28.1 °C 13.9 °C 1013.1 hPa NNE 4.8 km/h 6.4 km/h 42% 0 mm
14:36 27.8 °C 14.4 °C 1013.1 hPa East 1.6 km/h 6.4 km/h 44% 0 mm
14:41 27.7 °C 15.1 °C 1013.1 hPa SSE 3.2 km/h 3.2 km/h 46% 0 mm
14:46 27.6 °C 14.3 °C 1013.1 hPa East 1.6 km/h 1.6 km/h 44% 0 mm
14:51 27.4 °C 14.8 °C 1013.1 hPa NE 1.6 km/h 4.8 km/h 46% 0 mm
14:56 27.3 °C 15.1 °C 1013.1 hPa NE 3.2 km/h 3.2 km/h 47% 0 mm
15:01 27.2 °C 14.9 °C 1013.1 hPa ENE 4.8 km/h 8 km/h 47% 0 mm
15:06 27.2 °C 14.6 °C 1013.1 hPa ESE 1.6 km/h 6.4 km/h 46% 0 mm
15:11 27.3 °C 15.7 °C 1013.1 hPa SE 1.6 km/h 3.2 km/h 49% 0 mm
15:16 27.4 °C 14.8 °C 1013.1 hPa ESE 1.6 km/h 3.2 km/h 46% 0 mm
15:21 27.6 °C 15.2 °C 1013.1 hPa North 3.2 km/h 3.2 km/h 47% 0 mm
15:26 27.6 °C 15.3 °C 1013.1 hPa NNE 1.6 km/h 3.2 km/h 47% 0 mm
15:32 27.8 °C 15.8 °C 1012.8 hPa ESE 4.8 km/h 8 km/h 48% 0 mm
15:37 28 °C 15 °C 1012.8 hPa SSE 3.2 km/h 8 km/h 45% 0 mm
15:42 27.9 °C 14.6 °C 1012.8 hPa ESE 3.2 km/h 3.2 km/h 44% 0 mm
15:47 27.9 °C 15.2 °C 1012.8 hPa ESE 4.8 km/h 9.7 km/h 46% 0 mm
15:52 27.7 °C 14.4 °C 1012.8 hPa SE 1.6 km/h 3.2 km/h 44% 0 mm
15:57 27.8 °C 14.8 °C 1012.8 hPa Calm   1.6 km/h 45% 0 mm
16:02 27.8 °C 14.4 °C 1012.8 hPa SE 3.2 km/h 6.4 km/h 44% 0 mm
16:07 27.7 °C 13.6 °C 1012.8 hPa SSE 3.2 km/h 6.4 km/h 42% 0 mm
16:12 27.7 °C 14.7 °C 1012.8 hPa SE 1.6 km/h 3.2 km/h 45% 0 mm
16:17 27.6 °C 13.9 °C 1012.4 hPa SSE 1.6 km/h 6.4 km/h 43% 0 mm
16:22 27.7 °C 15 °C 1012.4 hPa NE 4.8 km/h 4.8 km/h 46% 0 mm
16:27 28 °C 14.6 °C 1012.4 hPa ENE 1.6 km/h 3.2 km/h 44% 0 mm
16:32 28.3 °C 14.6 °C 1012.4 hPa SSE 3.2 km/h 8 km/h 43% 0 mm
16:37 28.7 °C 15.6 °C 1012.1 hPa East 9.7 km/h 9.7 km/h 45% 0 mm
16:42 28.6 °C 14.4 °C 1012.1 hPa SSE 4.8 km/h 12.9 km/h 42% 0 mm
16:47 28.9 °C 14.3 °C 1012.1 hPa SE 6.4 km/h 6.4 km/h 41% 0 mm
16:52 28.8 °C 16 °C 1012.1 hPa ESE 9.7 km/h 11.3 km/h 46% 0 mm
16:57 28.8 °C 14.7 °C 1012.1 hPa ESE 8 km/h 8 km/h 42% 0 mm
17:02 28.7 °C 14.6 °C 1012.1 hPa WNW 4.8 km/h 6.4 km/h 42% 0 mm
17:07 28.4 °C 14.3 °C 1012.1 hPa West 3.2 km/h 6.4 km/h 42% 0 mm
17:12 28.1 °C 14.7 °C 1012.1 hPa WSW 3.2 km/h 4.8 km/h 44% 0 mm
17:17 27.7 °C 14.4 °C 1012.1 hPa West 3.2 km/h 4.8 km/h 44% 0 mm
17:22 27.5 °C 15.5 °C 1012.1 hPa WNW 3.2 km/h 3.2 km/h 48% 0 mm
17:27 27 °C 16 °C 1012.1 hPa NNW 3.2 km/h 6.4 km/h 51% 0 mm
17:32 26.4 °C 16.1 °C 1012.1 hPa NNW 4.8 km/h 4.8 km/h 53% 0 mm
17:37 25.7 °C 16.6 °C 1012.4 hPa NW 9.7 km/h 22.5 km/h 57% 0 mm
17:43 23.6 °C 16.7 °C 1012.4 hPa NW 20.9 km/h 24.1 km/h 65% 0 mm
17:47 22.8 °C 16.1 °C 1012.8 hPa WNW 9.7 km/h 19.3 km/h 66% 24.89 mm
17:53 21.8 °C 16.7 °C 1012.8 hPa West 14.5 km/h 16.1 km/h 73% 56.9 mm
17:58 21.8 °C 16.1 °C 1012.8 hPa West 9.7 km/h 16.1 km/h 70% 64.01 mm
18:03 22.1 °C 15.2 °C 1012.4 hPa West 12.9 km/h 19.3 km/h 65% 10.67 mm
18:08 21.4 °C 16.3 °C 1012.4 hPa West 6.4 km/h 11.3 km/h 73% 2.29 mm
18:13 21.5 °C 16.7 °C 1012.4 hPa WSW 8 km/h 12.9 km/h 74% 2.29 mm
18:18 21.7 °C 17.7 °C 1012.4 hPa West 6.4 km/h 9.7 km/h 78% 1.52 mm
18:23 22.2 °C 18.6 °C 1012.4 hPa WNW 8 km/h 8 km/h 80% 1.02 mm
18:28 22.5 °C 18.3 °C 1012.4 hPa SSW 1.6 km/h 6.4 km/h 77% 0 mm
18:33 22.6 °C 18.2 °C 1012.4 hPa East 8 km/h 8 km/h 76% 0 mm
18:38 22.3 °C 17.9 °C 1012.4 hPa ESE 3.2 km/h 4.8 km/h 76% 0 mm
18:43 22.3 °C 17.5 °C 1012.1 hPa Calm   1.6 km/h 74% 0 mm
18:48 22.4 °C 17.9 °C 1012.1 hPa East 1.6 km/h 3.2 km/h 76% 0 mm
18:53 22.4 °C 18.2 °C 1012.1 hPa Calm   1.6 km/h 77% 0 mm
18:58 22.4 °C 19 °C 1012.1 hPa Calm   1.6 km/h 81% 0 mm
19:03 22.1 °C 18.3 °C 1012.1 hPa Calm     79% 0 mm
19:08 21.9 °C 19.1 °C 1012.1 hPa Calm     84% 0 mm
19:13 21.7 °C 19.2 °C 1012.1 hPa East 1.6 km/h 1.6 km/h 86% 0 mm
19:18 21.4 °C 19.4 °C 1012.1 hPa NNW 1.6 km/h 1.6 km/h 88% 0 mm
19:23 21.2 °C 19.4 °C 1012.1 hPa NNW 1.6 km/h 1.6 km/h 90% 0 mm
19:28 20.9 °C 19.2 °C 1012.1 hPa Calm     90% 0 mm
19:33 20.5 °C 18.8 °C 1012.4 hPa NNE 3.2 km/h 3.2 km/h 90% 0 mm
19:38 20.3 °C 17.7 °C 1012.4 hPa NNE 3.2 km/h 3.2 km/h 85% 0 mm
19:43 20.9 °C 18.3 °C 1012.4 hPa NNW 3.2 km/h 6.4 km/h 85% 0 mm
19:48 20.6 °C 18 °C 1012.4 hPa Calm   3.2 km/h 85% 0 mm
19:53 20.6 °C 18.1 °C 1012.4 hPa North 3.2 km/h 3.2 km/h 86% 0 mm
19:58 20.4 °C 18 °C 1012.1 hPa Calm     86% 0 mm
20:03 20.6 °C 17.8 °C 1012.1 hPa NNE 1.6 km/h 1.6 km/h 84% 0 mm
20:08 20.8 °C 17.8 °C 1012.1 hPa NNE 3.2 km/h 3.2 km/h 83% 0 mm
20:13 21.1 °C 17.7 °C 1012.1 hPa NE 3.2 km/h 3.2 km/h 81% 0 mm
20:18 21.2 °C 17.4 °C 1012.1 hPa NE 1.6 km/h 1.6 km/h 79% 0 mm
20:23 21.2 °C 18.2 °C 1012.1 hPa Calm     83% 0 mm
20:28 20.9 °C 18.2 °C 1012.1 hPa Calm     84% 0 mm
20:33 20.7 °C 18.3 °C 1012.4 hPa NNE 1.6 km/h 1.6 km/h 86% 0 mm
20:38 20.4 °C 18.2 °C 1012.4 hPa NNE 1.6 km/h 1.6 km/h 87% 0 mm
20:43 20.1 °C 18.2 °C 1012.4 hPa Calm   1.6 km/h 89% 0 mm
20:48 19.9 °C 18.2 °C 1012.4 hPa Calm     90% 0 mm
20:53 19.8 °C 18.1 °C 1012.4 hPa NNE 1.6 km/h 1.6 km/h 90% 0 mm
20:58 19.8 °C 17.8 °C 1012.4 hPa NNE 1.6 km/h 3.2 km/h 88% 0 mm
21:03 20 °C 17.8 °C 1012.8 hPa NE 3.2 km/h 6.4 km/h 87% 0 mm
21:08 20.1 °C 17.5 °C 1012.8 hPa Calm   6.4 km/h 85% 0 mm
21:13 20 °C 17.6 °C 1012.8 hPa WNW 1.6 km/h 1.6 km/h 86% 0 mm
21:19 19.7 °C 17.4 °C 1012.8 hPa Calm     87% 0 mm
21:24 19.7 °C 17.6 °C 1012.8 hPa NNE 1.6 km/h 3.2 km/h 88% 0 mm
21:29 19.7 °C 17.3 °C 1012.8 hPa NE 3.2 km/h 4.8 km/h 86% 0 mm
21:34 20 °C 17.2 °C 1012.8 hPa NE 3.2 km/h 4.8 km/h 84% 0 mm
21:39 20.1 °C 17.1 °C 1012.8 hPa North 1.6 km/h 3.2 km/h 83% 0 mm
21:44 19.8 °C 17.1 °C 1012.8 hPa Calm   3.2 km/h 84% 0 mm
21:49 19.6 °C 16.9 °C 1012.8 hPa NE 1.6 km/h 3.2 km/h 85% 0 mm
21:54 19.8 °C 17 °C 1013.1 hPa NNE 4.8 km/h 4.8 km/h 84% 0 mm
21:59 20.1 °C 16.9 °C 1013.1 hPa Calm   4.8 km/h 82% 0 mm
22:04 20.1 °C 16.9 °C 1013.1 hPa Calm   3.2 km/h 82% 0 mm
22:09 20.1 °C 16.8 °C 1013.1 hPa NE 3.2 km/h 4.8 km/h 81% 0 mm
22:14 20.3 °C 16.8 °C 1013.1 hPa NE 1.6 km/h 4.8 km/h 80% 0 mm
22:19 20.5 °C 16.7 °C 1013.1 hPa NE 4.8 km/h 4.8 km/h 79% 0 mm
22:24 20.6 °C 16.6 °C 1013.1 hPa NE 3.2 km/h 6.4 km/h 78% 0 mm
22:29 20.6 °C 16.4 °C 1013.1 hPa NE 3.2 km/h 4.8 km/h 77% 0 mm
22:34 20.7 °C 16.5 °C 1013.1 hPa NE 1.6 km/h 4.8 km/h 77% 0 mm
22:39 20.8 °C 16.4 °C 1013.1 hPa NE 3.2 km/h 4.8 km/h 76% 0 mm
22:44 20.8 °C 16.2 °C 1013.1 hPa NE 3.2 km/h 4.8 km/h 75% 0 mm
22:49 20.8 °C 16.2 °C 1013.4 hPa NNE 1.6 km/h 4.8 km/h 75% 0 mm
22:54 20.7 °C 16.1 °C 1013.4 hPa NNE 1.6 km/h 3.2 km/h 75% 0 mm
22:59 20.8 °C 16.2 °C 1013.4 hPa NNE 3.2 km/h 4.8 km/h 75% 0 mm
23:04 20.8 °C 16 °C 1013.4 hPa NE 3.2 km/h 3.2 km/h 74% 0 mm
23:09 20.8 °C 16 °C 1013.4 hPa Calm   3.2 km/h 74% 0 mm
23:14 20.5 °C 15.9 °C 1013.4 hPa Calm   1.6 km/h 75% 0 mm
23:19 20.3 °C 15.8 °C 1013.4 hPa NE 1.6 km/h 3.2 km/h 75% 0 mm
23:24 20.3 °C 15.7 °C 1013.4 hPa NE 1.6 km/h 1.6 km/h 75% 0 mm
23:29 20.2 °C 15.8 °C 1013.4 hPa NE 1.6 km/h 1.6 km/h 76% 0 mm
23:35 20.1 °C 15.7 °C 1013.4 hPa NE 3.2 km/h 3.2 km/h 76% 0 mm
23:40 20.3 °C 15.6 °C 1013.4 hPa NE 1.6 km/h 3.2 km/h 74% 0 mm
23:45 20.4 °C 15.6 °C 1013.8 hPa NE 1.6 km/h 1.6 km/h 74% 0 mm
23:50 20.3 °C 15.5 °C 1013.4 hPa NE 1.6 km/h 1.6 km/h 74% 0 mm
23:55 20.2 °C 15.7 °C 1013.8 hPa NE 3.2 km/h 3.2 km/h 75% 0 mm
Compliments of Weather Underground